createdAt,value
2022-10-15T00:00:48.618Z,13.80
2022-10-15T00:03:26.006Z,13.70
2022-10-15T00:05:58.764Z,13.70
2022-10-15T00:08:29.088Z,13.70
2022-10-15T00:10:57.520Z,13.70
2022-10-15T00:13:28.820Z,13.70
2022-10-15T00:16:02.090Z,13.70
2022-10-15T00:18:30.766Z,13.60
2022-10-15T00:21:08.858Z,13.60
2022-10-15T00:23:39.727Z,13.50
2022-10-15T00:26:09.291Z,13.50
2022-10-15T00:28:44.580Z,13.50
2022-10-15T00:31:16.876Z,13.50
2022-10-15T00:33:45.427Z,13.40
2022-10-15T00:36:17.054Z,13.40
2022-10-15T00:38:46.155Z,13.40
2022-10-15T00:41:20.380Z,13.40
2022-10-15T00:43:52.484Z,13.40
2022-10-15T00:46:28.860Z,13.40
2022-10-15T00:51:34.574Z,13.40
2022-10-15T00:54:08.807Z,13.40
2022-10-15T00:56:37.244Z,13.40
2022-10-15T00:59:05.642Z,13.40
2022-10-15T01:01:37.678Z,13.50
2022-10-15T01:04:20.326Z,13.50
2022-10-15T01:06:48.635Z,13.40
2022-10-15T01:09:17.349Z,13.50
2022-10-15T01:11:47.540Z,13.50
2022-10-15T01:14:30.204Z,13.50
2022-10-15T01:17:06.842Z,13.50
2022-10-15T01:19:50.181Z,13.50
2022-10-15T01:22:26.585Z,13.50
2022-10-15T01:25:04.069Z,13.60
2022-10-15T01:27:43.084Z,13.60
2022-10-15T01:30:28.163Z,13.60
2022-10-15T01:33:22.198Z,13.70
2022-10-15T01:35:51.599Z,13.70
2022-10-15T01:38:34.292Z,13.70
2022-10-15T01:41:09.597Z,13.70
2022-10-15T01:43:45.584Z,13.70
2022-10-15T01:46:30.859Z,13.70
2022-10-15T01:49:15.565Z,13.70
2022-10-15T01:51:44.723Z,13.80
2022-10-15T01:54:17.860Z,13.80
2022-10-15T01:56:49.711Z,13.80
2022-10-15T01:59:21.044Z,13.80
2022-10-15T02:01:50.847Z,13.80
2022-10-15T02:04:26.179Z,13.80
2022-10-15T02:07:04.032Z,13.80
2022-10-15T02:09:39.839Z,13.80
2022-10-15T02:12:16.257Z,13.80
2022-10-15T02:14:50.930Z,13.80
2022-10-15T02:17:31.327Z,13.80
2022-10-15T02:20:03.295Z,13.80
2022-10-15T02:22:36.601Z,13.80
2022-10-15T02:25:09.760Z,13.80
2022-10-15T02:27:40.598Z,13.80
2022-10-15T02:30:09.962Z,13.80
2022-10-15T02:32:45.945Z,13.80
2022-10-15T02:35:17.088Z,13.80
2022-10-15T02:38:00.795Z,13.70
2022-10-15T02:40:32.650Z,13.80
2022-10-15T02:43:07.475Z,13.70
2022-10-15T02:45:35.727Z,13.70
2022-10-15T02:48:11.016Z,13.70
2022-10-15T02:50:39.396Z,13.60
2022-10-15T02:53:07.870Z,13.60
2022-10-15T02:55:36.252Z,13.60
2022-10-15T02:58:04.460Z,13.50
2022-10-15T03:00:33.803Z,13.50
2022-10-15T03:03:02.189Z,13.50
2022-10-15T03:05:35.123Z,13.50
2022-10-15T03:08:05.231Z,13.40
2022-10-15T03:10:33.729Z,13.40
2022-10-15T03:13:06.866Z,13.30
2022-10-15T03:15:35.277Z,13.30
2022-10-15T03:18:04.729Z,13.30
2022-10-15T03:20:35.778Z,13.30
2022-10-15T03:23:06.847Z,13.20
2022-10-15T03:25:35.143Z,13.20
2022-10-15T03:28:03.703Z,13.20
2022-10-15T03:30:34.427Z,13.20
2022-10-15T03:33:07.696Z,13.20
2022-10-15T03:35:38.798Z,13.10
2022-10-15T03:38:16.396Z,13.10
2022-10-15T03:40:52.598Z,13.10
2022-10-15T03:43:24.865Z,13.10
2022-10-15T03:45:54.990Z,13.10
2022-10-15T03:48:26.850Z,13.00
2022-10-15T03:50:56.882Z,13.00
2022-10-15T03:53:25.214Z,13.00
2022-10-15T03:55:53.525Z,13.00
2022-10-15T03:58:24.188Z,13.00
2022-10-15T04:00:55.839Z,13.00
2022-10-15T04:03:24.257Z,13.00
2022-10-15T04:05:54.176Z,13.00
2022-10-15T04:08:33.606Z,13.10
2022-10-15T04:11:02.308Z,13.00
2022-10-15T04:13:32.753Z,13.00
2022-10-15T04:16:06.707Z,13.00
2022-10-15T04:18:36.375Z,13.00
2022-10-15T04:21:04.979Z,13.00
2022-10-15T04:23:36.859Z,13.00
2022-10-15T04:26:06.814Z,13.00
2022-10-15T04:28:38.887Z,13.00
2022-10-15T04:31:09.324Z,13.00
2022-10-15T04:33:37.805Z,13.00
2022-10-15T04:36:07.537Z,12.90
2022-10-15T04:38:38.125Z,12.90
2022-10-15T04:41:17.061Z,12.90
2022-10-15T04:43:45.342Z,12.90
2022-10-15T04:46:18.012Z,12.90
2022-10-15T04:48:46.366Z,12.90
2022-10-15T04:51:17.851Z,12.90
2022-10-15T04:53:52.688Z,12.90
2022-10-15T04:56:23.390Z,13.00
2022-10-15T04:58:52.008Z,13.00
2022-10-15T05:01:24.196Z,13.00
2022-10-15T05:03:59.177Z,13.00
2022-10-15T05:06:30.756Z,13.10
2022-10-15T05:09:02.949Z,13.10
2022-10-15T05:11:31.297Z,13.10
2022-10-15T05:14:15.002Z,13.20
2022-10-15T05:16:45.631Z,13.20
2022-10-15T05:19:22.806Z,13.20
2022-10-15T05:21:52.802Z,13.20
2022-10-15T05:24:29.291Z,13.20
2022-10-15T05:27:02.885Z,13.20
2022-10-15T05:29:38.359Z,13.20
2022-10-15T05:32:09.131Z,13.10
2022-10-15T05:34:37.572Z,13.10
2022-10-15T05:37:08.872Z,13.10
2022-10-15T05:39:40.332Z,13.10
2022-10-15T05:42:10.094Z,13.10
2022-10-15T05:44:41.015Z,13.10
2022-10-15T05:47:24.132Z,13.10
2022-10-15T05:49:55.610Z,13.00
2022-10-15T05:52:37.363Z,13.00
2022-10-15T05:55:07.805Z,13.10
2022-10-15T05:57:36.244Z,13.10
2022-10-15T06:00:05.384Z,13.10
2022-10-15T06:02:34.112Z,13.10
2022-10-15T06:05:10.737Z,13.10
2022-10-15T06:07:39.015Z,13.10
2022-10-15T06:10:14.765Z,13.10
2022-10-15T06:12:50.258Z,13.20
2022-10-15T06:15:20.141Z,13.20
2022-10-15T06:17:51.106Z,13.20
2022-10-15T06:20:31.466Z,13.20
2022-10-15T06:23:01.945Z,13.30
2022-10-15T06:25:35.045Z,13.30
2022-10-15T06:28:09.860Z,13.40
2022-10-15T06:30:38.193Z,13.40
2022-10-15T06:35:41.410Z,13.50
2022-10-15T06:38:16.646Z,13.50
2022-10-15T06:40:49.542Z,13.50
2022-10-15T06:43:21.781Z,13.60
2022-10-15T06:46:01.123Z,13.60
2022-10-15T06:48:49.422Z,13.50
2022-10-15T06:51:25.211Z,13.60
2022-10-15T06:53:55.290Z,13.60
2022-10-15T06:56:28.529Z,13.60
2022-10-15T06:59:01.396Z,13.60
2022-10-15T07:01:32.280Z,13.60
2022-10-15T07:04:00.989Z,13.70
2022-10-15T07:06:46.314Z,13.70
2022-10-15T07:09:15.707Z,13.70
2022-10-15T07:11:45.686Z,13.80
2022-10-15T07:14:22.535Z,13.80
2022-10-15T07:16:51.056Z,13.80
2022-10-15T07:19:23.060Z,13.80
2022-10-15T07:21:51.437Z,13.90
2022-10-15T07:24:22.194Z,13.90
2022-10-15T07:26:52.126Z,13.90
2022-10-15T07:29:24.044Z,14.00
2022-10-15T07:31:52.311Z,14.00
2022-10-15T07:34:22.779Z,14.00
2022-10-15T07:36:52.734Z,14.00
2022-10-15T07:39:23.974Z,14.10
2022-10-15T07:41:53.758Z,14.10
2022-10-15T07:44:22.227Z,14.20
2022-10-15T07:46:50.500Z,14.20
2022-10-15T07:49:27.473Z,14.20
2022-10-15T07:51:55.768Z,14.20
2022-10-15T07:54:24.304Z,14.30
2022-10-15T07:56:54.222Z,14.30
2022-10-15T07:59:23.810Z,14.30
2022-10-15T08:01:53.926Z,14.30
2022-10-15T08:04:22.197Z,14.30
2022-10-15T08:06:51.643Z,14.20
2022-10-15T08:09:22.707Z,14.20
2022-10-15T08:11:50.993Z,14.20
2022-10-15T08:14:25.385Z,14.30
2022-10-15T08:16:53.605Z,14.30
2022-10-15T08:19:24.890Z,14.30
2022-10-15T08:21:53.157Z,14.30
2022-10-15T08:24:26.567Z,14.40
2022-10-15T08:26:54.872Z,14.40
2022-10-15T08:29:27.527Z,14.50
2022-10-15T08:31:55.727Z,14.60
2022-10-15T08:34:25.498Z,14.70
2022-10-15T08:36:53.926Z,14.70
2022-10-15T08:39:29.100Z,14.80
2022-10-15T08:41:58.429Z,14.80
2022-10-15T08:44:29.799Z,14.90
2022-10-15T08:47:00.146Z,14.90
2022-10-15T08:49:35.527Z,15.00
2022-10-15T08:52:09.310Z,15.10
2022-10-15T08:54:40.387Z,15.10
2022-10-15T08:57:20.640Z,15.20
2022-10-15T08:59:56.716Z,15.30
2022-10-15T09:02:25.703Z,15.50
2022-10-15T09:05:03.349Z,15.60
2022-10-15T09:07:36.087Z,15.60
2022-10-15T09:10:12.975Z,15.70
2022-10-15T09:12:47.518Z,15.70
2022-10-15T09:15:25.513Z,15.70
2022-10-15T09:17:56.402Z,15.70
2022-10-15T09:20:27.023Z,15.70
2022-10-15T09:22:55.304Z,15.70
2022-10-15T09:25:27.587Z,15.60
2022-10-15T09:27:58.101Z,15.70
2022-10-15T09:30:31.946Z,15.70
2022-10-15T09:33:03.436Z,15.70
2022-10-15T09:35:39.874Z,15.70
2022-10-15T09:38:23.295Z,15.70
2022-10-15T09:40:57.284Z,15.70
2022-10-15T09:43:28.422Z,15.70
2022-10-15T09:46:01.301Z,15.80
2022-10-15T09:48:29.770Z,15.80
2022-10-15T09:50:59.785Z,15.70
2022-10-15T09:53:31.983Z,15.70
2022-10-15T09:56:04.133Z,15.60
2022-10-15T09:58:35.217Z,15.70
2022-10-15T10:01:05.559Z,15.60
2022-10-15T10:03:34.741Z,15.60
2022-10-15T10:06:06.002Z,15.70
2022-10-15T10:08:36.926Z,15.70
2022-10-15T10:11:06.525Z,15.70
2022-10-15T10:13:45.369Z,15.70
2022-10-15T10:16:16.156Z,15.80
2022-10-15T10:18:50.482Z,15.90
2022-10-15T10:21:26.748Z,15.90
2022-10-15T10:23:55.111Z,15.90
2022-10-15T10:26:23.323Z,15.80
2022-10-15T10:28:56.964Z,15.90
2022-10-15T10:31:48.229Z,15.90
2022-10-15T10:34:21.414Z,15.90
2022-10-15T10:36:50.438Z,15.90
2022-10-15T10:39:22.954Z,15.90
2022-10-15T10:41:51.947Z,15.90
2022-10-15T10:44:27.133Z,15.90
2022-10-15T10:47:14.553Z,16.00
2022-10-15T10:49:43.817Z,15.90
2022-10-15T10:52:27.017Z,15.90
2022-10-15T10:55:01.765Z,16.00
2022-10-15T10:57:39.063Z,16.00
2022-10-15T11:00:08.325Z,16.10
2022-10-15T11:02:53.338Z,16.10
2022-10-15T11:05:26.916Z,16.10
2022-10-15T11:07:59.202Z,16.10
2022-10-15T11:10:30.113Z,16.10
2022-10-15T11:13:07.810Z,16.10
2022-10-15T11:15:43.135Z,16.10
2022-10-15T11:18:23.885Z,16.10
2022-10-15T11:21:00.749Z,16.00
2022-10-15T11:23:40.282Z,16.00
2022-10-15T11:26:27.959Z,16.00
2022-10-15T11:29:03.802Z,16.00
2022-10-15T11:31:43.997Z,16.00
2022-10-15T11:34:34.901Z,16.00
2022-10-15T11:37:12.074Z,16.00
2022-10-15T11:39:48.134Z,16.00
2022-10-15T11:42:23.805Z,16.00
2022-10-15T11:45:01.976Z,16.00
2022-10-15T11:47:40.110Z,16.00
2022-10-15T11:50:25.654Z,16.00
2022-10-15T11:53:17.313Z,16.00
2022-10-15T11:56:00.557Z,16.00
2022-10-15T11:58:30.608Z,16.00
2022-10-15T12:01:00.326Z,16.10
2022-10-15T12:03:29.168Z,16.10
2022-10-15T12:06:03.896Z,16.10
2022-10-15T12:08:35.418Z,16.10
2022-10-15T12:11:21.384Z,16.20
2022-10-15T12:13:52.297Z,16.20
2022-10-15T12:16:25.982Z,16.20
2022-10-15T12:18:57.170Z,16.20
2022-10-15T12:21:38.399Z,16.20
2022-10-15T12:24:10.721Z,16.30
2022-10-15T12:26:41.919Z,16.40
2022-10-15T12:29:24.037Z,16.40
2022-10-15T12:31:56.408Z,16.40
2022-10-15T12:34:31.934Z,16.40
2022-10-15T12:37:12.123Z,16.40
2022-10-15T12:39:51.809Z,16.40
2022-10-15T12:42:27.725Z,16.40
2022-10-15T12:44:58.029Z,16.50
2022-10-15T12:47:47.164Z,16.50
2022-10-15T12:50:21.766Z,16.50
2022-10-15T12:53:33.324Z,16.60
2022-10-15T12:56:24.067Z,16.60
2022-10-15T12:58:53.656Z,16.70
2022-10-15T13:01:32.242Z,16.90
2022-10-15T13:04:01.053Z,17.30
2022-10-15T13:06:35.089Z,17.50
2022-10-15T13:09:19.964Z,17.70
2022-10-15T13:14:28.838Z,17.90
2022-10-15T13:16:59.157Z,17.90
2022-10-15T13:19:36.566Z,17.80
2022-10-15T13:22:06.072Z,17.80
2022-10-15T13:24:45.615Z,17.80
2022-10-15T13:27:24.467Z,17.90
2022-10-15T13:29:59.570Z,18.00
2022-10-15T13:32:32.471Z,18.00
2022-10-15T13:35:00.904Z,18.30
2022-10-15T13:37:32.675Z,18.50
2022-10-15T13:40:10.142Z,18.70
2022-10-15T13:42:38.546Z,18.70
2022-10-15T13:45:20.387Z,18.70
2022-10-15T13:48:03.102Z,18.80
2022-10-15T13:50:34.986Z,18.80
2022-10-15T13:53:17.687Z,18.80
2022-10-15T13:55:56.731Z,18.80
2022-10-15T13:58:28.001Z,18.80
2022-10-15T14:01:03.271Z,18.70
2022-10-15T14:03:35.973Z,18.60
2022-10-15T14:06:15.966Z,18.50
2022-10-15T14:08:48.212Z,18.50
2022-10-15T14:11:25.516Z,18.40
2022-10-15T14:13:57.466Z,18.40
2022-10-15T14:16:35.863Z,18.50
2022-10-15T14:19:32.435Z,18.40
2022-10-15T14:22:10.483Z,18.30
2022-10-15T14:24:46.943Z,18.20
2022-10-15T14:27:33.286Z,18.20
2022-10-15T14:30:16.310Z,18.10
2022-10-15T14:32:52.995Z,18.00
2022-10-15T14:35:26.657Z,18.00
2022-10-15T14:38:06.267Z,18.10
2022-10-15T14:40:38.309Z,18.20
2022-10-15T14:43:20.238Z,18.20
2022-10-15T14:45:56.711Z,18.10
2022-10-15T14:48:34.051Z,18.10
2022-10-15T14:51:07.614Z,18.10
2022-10-15T14:53:50.873Z,18.10
2022-10-15T14:56:24.356Z,18.10
2022-10-15T14:59:16.242Z,17.90
2022-10-15T15:02:01.619Z,17.80
2022-10-15T15:04:37.587Z,17.80
2022-10-15T15:07:24.907Z,17.70
2022-10-15T15:10:02.249Z,17.70
2022-10-15T15:12:35.700Z,17.60
2022-10-15T15:15:12.009Z,17.60
2022-10-15T15:17:44.046Z,17.60
2022-10-15T15:20:14.444Z,17.60
2022-10-15T15:22:44.545Z,17.60
2022-10-15T15:25:16.222Z,17.60
2022-10-15T15:27:50.780Z,17.60
2022-10-15T15:30:27.399Z,17.60
2022-10-15T15:33:22.705Z,17.50
2022-10-15T15:36:18.937Z,17.50
2022-10-15T15:38:53.694Z,17.50
2022-10-15T15:41:28.344Z,17.50
2022-10-15T15:43:56.731Z,17.50
2022-10-15T15:46:26.738Z,17.40
2022-10-15T15:48:58.985Z,17.30
2022-10-15T15:51:28.508Z,17.30
2022-10-15T15:54:08.759Z,17.20
2022-10-15T15:56:41.525Z,17.10
2022-10-15T15:59:24.459Z,17.00
2022-10-15T16:02:03.453Z,16.90
2022-10-15T16:04:33.709Z,16.80
2022-10-15T16:07:08.958Z,16.70
2022-10-15T16:09:41.948Z,16.70
2022-10-15T16:12:22.174Z,16.60
2022-10-15T16:14:53.336Z,16.50
2022-10-15T16:17:25.403Z,16.50
2022-10-15T16:19:57.425Z,16.40
2022-10-15T16:22:30.659Z,16.30
2022-10-15T16:25:00.376Z,16.20
2022-10-15T16:27:34.087Z,16.20
2022-10-15T16:30:03.195Z,16.10
2022-10-15T16:32:32.875Z,16.00
2022-10-15T16:35:03.017Z,16.00
2022-10-15T16:37:36.131Z,15.90
2022-10-15T16:40:08.449Z,15.90
2022-10-15T16:42:53.694Z,15.80
2022-10-15T16:45:25.065Z,15.80
2022-10-15T16:47:55.348Z,15.80
2022-10-15T16:50:27.357Z,15.70
2022-10-15T16:52:58.423Z,15.70
2022-10-15T16:55:28.878Z,15.50
2022-10-15T16:58:00.137Z,15.50
2022-10-15T17:00:34.583Z,15.50
2022-10-15T17:03:07.506Z,15.40
2022-10-15T17:05:35.955Z,15.40
2022-10-15T17:08:04.342Z,15.40
2022-10-15T17:10:34.444Z,15.40
2022-10-15T17:13:08.148Z,15.40
2022-10-15T17:15:36.630Z,15.40
2022-10-15T17:18:07.822Z,15.30
2022-10-15T17:20:36.665Z,15.30
2022-10-15T17:23:06.250Z,15.30
2022-10-15T17:25:37.225Z,15.30
2022-10-15T17:28:10.259Z,15.30
2022-10-15T17:30:44.198Z,15.20
2022-10-15T17:33:16.432Z,15.20
2022-10-15T17:35:44.793Z,15.20
2022-10-15T17:38:25.101Z,15.20
2022-10-15T17:40:53.574Z,15.20
2022-10-15T17:43:22.200Z,15.30
2022-10-15T17:45:50.507Z,15.20
2022-10-15T17:50:52.366Z,15.30
2022-10-15T17:53:23.496Z,15.30
2022-10-15T17:55:51.861Z,15.30
2022-10-15T17:58:26.382Z,15.30
2022-10-15T18:00:55.278Z,15.40
2022-10-15T18:03:29.569Z,15.40
2022-10-15T18:06:00.120Z,15.50
2022-10-15T18:08:29.396Z,15.60
2022-10-15T18:10:57.539Z,15.60
2022-10-15T18:13:25.817Z,15.60
2022-10-15T18:15:57.278Z,15.60
2022-10-15T18:18:28.122Z,15.70
2022-10-15T18:20:58.186Z,15.70
2022-10-15T18:23:30.086Z,15.70
2022-10-15T18:26:07.962Z,15.80
2022-10-15T18:28:37.277Z,15.80
2022-10-15T18:31:08.740Z,15.80
2022-10-15T18:33:40.097Z,15.80
2022-10-15T18:36:20.840Z,15.80
2022-10-15T18:38:49.540Z,15.70
2022-10-15T18:41:21.007Z,15.70
2022-10-15T18:43:53.947Z,15.70
2022-10-15T18:46:25.489Z,15.60
2022-10-15T18:48:54.651Z,15.60
2022-10-15T18:51:28.557Z,15.60
2022-10-15T18:54:08.732Z,15.60
2022-10-15T18:56:37.055Z,15.60
2022-10-15T18:59:05.369Z,15.50
2022-10-15T19:01:35.752Z,15.50
2022-10-15T19:04:09.698Z,15.50
2022-10-15T19:06:46.505Z,15.40
2022-10-15T19:09:16.463Z,15.40
2022-10-15T19:11:46.035Z,15.40
2022-10-15T19:14:22.327Z,15.40
2022-10-15T19:17:01.382Z,15.40
2022-10-15T19:19:30.591Z,15.30
2022-10-15T19:22:00.392Z,15.30
2022-10-15T19:24:30.392Z,15.30
2022-10-15T19:26:58.747Z,15.30
2022-10-15T19:29:31.524Z,15.30
2022-10-15T19:32:05.835Z,15.20
2022-10-15T19:34:35.425Z,15.20
2022-10-15T19:37:07.141Z,15.20
2022-10-15T19:39:35.827Z,15.10
2022-10-15T19:42:04.205Z,15.10
2022-10-15T19:44:32.567Z,15.10
2022-10-15T19:47:00.797Z,15.00
2022-10-15T19:49:29.090Z,15.00
2022-10-15T19:52:01.187Z,15.00
2022-10-15T19:54:32.713Z,15.00
2022-10-15T19:57:04.008Z,15.00
2022-10-15T19:59:32.338Z,15.10
2022-10-15T20:02:00.811Z,15.10
2022-10-15T20:04:29.125Z,15.00
2022-10-15T20:06:57.561Z,15.10
2022-10-15T20:09:26.808Z,15.00
2022-10-15T20:11:58.360Z,15.00
2022-10-15T20:14:26.916Z,15.00
2022-10-15T20:16:55.175Z,15.00
2022-10-15T20:19:28.905Z,15.00
2022-10-15T20:21:57.405Z,15.00
2022-10-15T20:24:28.622Z,15.00
2022-10-15T20:26:58.457Z,15.00
2022-10-15T20:29:32.016Z,15.00
2022-10-15T20:32:10.873Z,15.00
2022-10-15T20:34:51.265Z,14.90
2022-10-15T20:37:21.300Z,15.00
2022-10-15T20:39:52.711Z,15.10
2022-10-15T20:42:26.494Z,15.10
2022-10-15T20:44:54.945Z,15.10
2022-10-15T20:47:31.264Z,15.10
2022-10-15T20:50:06.467Z,15.10
2022-10-15T20:52:34.922Z,15.20
2022-10-15T20:55:05.333Z,15.20
2022-10-15T20:57:35.793Z,15.10
2022-10-15T21:00:10.517Z,15.20
2022-10-15T21:02:41.726Z,15.20
2022-10-15T21:05:10.798Z,15.10
2022-10-15T21:07:46.168Z,15.20
2022-10-15T21:10:17.613Z,15.20
2022-10-15T21:12:47.335Z,15.20
2022-10-15T21:15:15.727Z,15.20
2022-10-15T21:17:46.403Z,15.20
2022-10-15T21:20:14.894Z,15.20
2022-10-15T21:22:43.277Z,15.30
2022-10-15T21:25:13.773Z,15.20
2022-10-15T21:27:42.734Z,15.30
2022-10-15T21:30:22.461Z,15.20
2022-10-15T21:32:50.814Z,15.20
2022-10-15T21:35:21.850Z,15.20
2022-10-15T21:37:53.051Z,15.20
2022-10-15T21:40:32.213Z,15.20
2022-10-15T21:43:02.595Z,15.10
2022-10-15T21:45:32.357Z,15.10
2022-10-15T21:48:00.686Z,15.10
2022-10-15T21:50:32.031Z,15.00
2022-10-15T21:53:00.335Z,15.00
2022-10-15T21:55:32.671Z,15.00
2022-10-15T21:58:01.026Z,14.90
2022-10-15T22:00:31.063Z,14.90
2022-10-15T22:03:00.843Z,14.90
2022-10-15T22:05:29.139Z,14.90
2022-10-15T22:08:02.642Z,14.80
2022-10-15T22:10:31.471Z,14.80
2022-10-15T22:13:01.147Z,14.80
2022-10-15T22:15:29.610Z,14.80
2022-10-15T22:18:04.773Z,14.70
2022-10-15T22:20:33.163Z,14.70
2022-10-15T22:23:01.442Z,14.70
2022-10-15T22:25:32.007Z,14.70
2022-10-15T22:28:02.989Z,14.60
2022-10-15T22:30:32.853Z,14.60
2022-10-15T22:33:07.518Z,14.60
2022-10-15T22:35:35.863Z,14.50
2022-10-15T22:38:07.118Z,14.50
2022-10-15T22:40:36.372Z,14.50
2022-10-15T22:43:04.772Z,14.50
2022-10-15T22:45:33.186Z,14.50
2022-10-15T22:48:05.954Z,14.50
2022-10-15T22:50:35.680Z,14.50
2022-10-15T22:53:04.662Z,14.60
2022-10-15T22:55:36.152Z,14.60
2022-10-15T22:58:04.684Z,14.60
2022-10-15T23:00:33.099Z,14.60
2022-10-15T23:03:03.338Z,14.70
2022-10-15T23:05:31.601Z,14.70
2022-10-15T23:08:03.167Z,14.70
2022-10-15T23:10:31.436Z,14.70
2022-10-15T23:12:59.776Z,14.70
2022-10-15T23:15:28.099Z,14.80
2022-10-15T23:17:56.515Z,14.80
2022-10-15T23:20:27.439Z,14.80
2022-10-15T23:22:56.744Z,14.80
2022-10-15T23:25:26.554Z,14.80
2022-10-15T23:27:54.937Z,14.80
2022-10-15T23:30:25.112Z,14.80
2022-10-15T23:32:55.937Z,14.80
2022-10-15T23:35:24.514Z,14.80
2022-10-15T23:37:52.804Z,14.80
2022-10-15T23:40:22.714Z,14.80
2022-10-15T23:42:52.494Z,14.80
2022-10-15T23:45:23.420Z,14.80
2022-10-15T23:47:53.942Z,14.80
2022-10-15T23:50:22.273Z,14.70
2022-10-15T23:52:57.631Z,14.70
2022-10-15T23:55:25.982Z,14.70
2022-10-15T23:57:56.322Z,14.70
